sensor_id;sensor_type;location;lat;lon;timestamp;P1;durP1;ratioP1;P2;durP2;ratioP2
27566;SDS011;15006;48.584;9.186;2023-10-09T00:02:06;15.30;;;5.40;;
27566;SDS011;15006;48.584;9.186;2023-10-09T00:04:41;17.17;;;5.20;;
27566;SDS011;15006;48.584;9.186;2023-10-09T00:07:10;22.15;;;5.85;;
27566;SDS011;15006;48.584;9.186;2023-10-09T00:09:37;18.15;;;5.88;;
27566;SDS011;15006;48.584;9.186;2023-10-09T00:12:16;20.00;;;5.90;;
27566;SDS011;15006;48.584;9.186;2023-10-09T00:14:53;18.53;;;5.40;;
27566;SDS011;15006;48.584;9.186;2023-10-09T00:17:33;26.55;;;5.78;;
27566;SDS011;15006;48.584;9.186;2023-10-09T00:19:59;14.18;;;5.18;;
27566;SDS011;15006;48.584;9.186;2023-10-09T00:22:33;23.55;;;6.32;;
27566;SDS011;15006;48.584;9.186;2023-10-09T00:25:03;16.60;;;5.97;;
27566;SDS011;15006;48.584;9.186;2023-10-09T00:27:48;16.83;;;5.20;;
27566;SDS011;15006;48.584;9.186;2023-10-09T00:30:14;16.95;;;5.40;;
27566;SDS011;15006;48.584;9.186;2023-10-09T00:32:43;18.83;;;6.05;;
27566;SDS011;15006;48.584;9.186;2023-10-09T00:35:30;19.90;;;5.45;;
27566;SDS011;15006;48.584;9.186;2023-10-09T00:38:05;12.63;;;5.35;;
27566;SDS011;15006;48.584;9.186;2023-10-09T00:40:49;18.00;;;5.43;;
27566;SDS011;15006;48.584;9.186;2023-10-09T00:43:28;19.02;;;5.20;;
27566;SDS011;15006;48.584;9.186;2023-10-09T00:45:55;17.63;;;5.22;;
27566;SDS011;15006;48.584;9.186;2023-10-09T00:48:53;18.40;;;5.50;;
27566;SDS011;15006;48.584;9.186;2023-10-09T00:51:22;13.75;;;5.00;;
27566;SDS011;15006;48.584;9.186;2023-10-09T00:53:55;15.82;;;5.50;;
27566;SDS011;15006;48.584;9.186;2023-10-09T00:56:49;20.00;;;5.72;;
27566;SDS011;15006;48.584;9.186;2023-10-09T00:59:24;19.50;;;4.75;;
27566;SDS011;15006;48.584;9.186;2023-10-09T01:01:52;17.65;;;5.38;;
27566;SDS011;15006;48.584;9.186;2023-10-09T01:04:23;17.90;;;5.15;;
27566;SDS011;15006;48.584;9.186;2023-10-09T01:06:51;15.30;;;5.63;;
27566;SDS011;15006;48.584;9.186;2023-10-09T01:09:33;18.02;;;5.97;;
27566;SDS011;15006;48.584;9.186;2023-10-09T01:12:04;20.52;;;4.75;;
27566;SDS011;15006;48.584;9.186;2023-10-09T01:14:31;21.20;;;5.68;;
27566;SDS011;15006;48.584;9.186;2023-10-09T01:17:02;14.35;;;5.38;;
27566;SDS011;15006;48.584;9.186;2023-10-09T01:19:50;17.67;;;5.10;;
27566;SDS011;15006;48.584;9.186;2023-10-09T01:22:21;18.23;;;5.20;;
27566;SDS011;15006;48.584;9.186;2023-10-09T01:24:48;14.52;;;4.63;;
27566;SDS011;15006;48.584;9.186;2023-10-09T01:27:16;14.05;;;4.90;;
27566;SDS011;15006;48.584;9.186;2023-10-09T01:29:43;17.38;;;4.97;;
27566;SDS011;15006;48.584;9.186;2023-10-09T01:32:11;14.07;;;5.40;;
27566;SDS011;15006;48.584;9.186;2023-10-09T01:34:47;15.38;;;5.35;;
27566;SDS011;15006;48.584;9.186;2023-10-09T01:37:19;19.40;;;4.85;;
27566;SDS011;15006;48.584;9.186;2023-10-09T01:39:56;13.93;;;4.85;;
27566;SDS011;15006;48.584;9.186;2023-10-09T01:42:27;13.65;;;5.30;;
27566;SDS011;15006;48.584;9.186;2023-10-09T01:45:10;12.57;;;4.25;;
27566;SDS011;15006;48.584;9.186;2023-10-09T01:47:52;11.60;;;4.78;;
27566;SDS011;15006;48.584;9.186;2023-10-09T01:50:20;19.15;;;5.32;;
27566;SDS011;15006;48.584;9.186;2023-10-09T01:52:50;20.23;;;5.55;;
27566;SDS011;15006;48.584;9.186;2023-10-09T01:55:17;24.85;;;5.45;;
27566;SDS011;15006;48.584;9.186;2023-10-09T01:58:14;14.13;;;4.82;;
27566;SDS011;15006;48.584;9.186;2023-10-09T02:00:47;17.25;;;5.25;;
27566;SDS011;15006;48.584;9.186;2023-10-09T02:03:15;18.58;;;5.15;;
27566;SDS011;15006;48.584;9.186;2023-10-09T02:05:43;15.98;;;4.90;;
27566;SDS011;15006;48.584;9.186;2023-10-09T02:08:09;21.42;;;5.78;;
27566;SDS011;15006;48.584;9.186;2023-10-09T02:10:38;19.58;;;5.13;;
27566;SDS011;15006;48.584;9.186;2023-10-09T02:13:06;16.77;;;5.68;;
27566;SDS011;15006;48.584;9.186;2023-10-09T02:15:38;11.00;;;4.22;;
27566;SDS011;15006;48.584;9.186;2023-10-09T02:18:06;16.05;;;5.18;;
27566;SDS011;15006;48.584;9.186;2023-10-09T02:23:28;15.18;;;4.95;;
27566;SDS011;15006;48.584;9.186;2023-10-09T02:26:15;18.55;;;5.47;;
27566;SDS011;15006;48.584;9.186;2023-10-09T02:28:53;17.58;;;4.63;;
27566;SDS011;15006;48.584;9.186;2023-10-09T02:31:25;16.35;;;5.35;;
27566;SDS011;15006;48.584;9.186;2023-10-09T02:34:01;16.75;;;5.03;;
27566;SDS011;15006;48.584;9.186;2023-10-09T02:36:30;12.73;;;5.28;;
27566;SDS011;15006;48.584;9.186;2023-10-09T02:39:00;10.77;;;4.40;;
27566;SDS011;15006;48.584;9.186;2023-10-09T02:41:27;21.83;;;4.60;;
27566;SDS011;15006;48.584;9.186;2023-10-09T02:43:56;20.80;;;5.57;;
27566;SDS011;15006;48.584;9.186;2023-10-09T02:46:24;16.85;;;5.45;;
27566;SDS011;15006;48.584;9.186;2023-10-09T02:48:55;13.80;;;5.10;;
27566;SDS011;15006;48.584;9.186;2023-10-09T02:51:30;14.65;;;5.20;;
27566;SDS011;15006;48.584;9.186;2023-10-09T02:54:06;17.83;;;5.15;;
27566;SDS011;15006;48.584;9.186;2023-10-09T02:56:50;14.43;;;4.80;;
27566;SDS011;15006;48.584;9.186;2023-10-09T02:59:44;23.70;;;5.47;;
27566;SDS011;15006;48.584;9.186;2023-10-09T03:02:11;11.32;;;5.00;;
27566;SDS011;15006;48.584;9.186;2023-10-09T03:04:38;18.65;;;4.55;;
27566;SDS011;15006;48.584;9.186;2023-10-09T03:07:07;15.52;;;4.75;;
27566;SDS011;15006;48.584;9.186;2023-10-09T03:09:36;13.55;;;4.55;;
27566;SDS011;15006;48.584;9.186;2023-10-09T03:12:04;14.52;;;5.10;;
27566;SDS011;15006;48.584;9.186;2023-10-09T03:14:36;13.00;;;5.28;;
27566;SDS011;15006;48.584;9.186;2023-10-09T03:17:04;12.52;;;4.93;;
27566;SDS011;15006;48.584;9.186;2023-10-09T03:19:32;21.48;;;5.40;;
27566;SDS011;15006;48.584;9.186;2023-10-09T03:22:06;15.25;;;5.13;;
27566;SDS011;15006;48.584;9.186;2023-10-09T03:24:36;12.18;;;5.10;;
27566;SDS011;15006;48.584;9.186;2023-10-09T03:27:08;15.20;;;5.03;;
27566;SDS011;15006;48.584;9.186;2023-10-09T03:29:36;21.23;;;5.13;;
27566;SDS011;15006;48.584;9.186;2023-10-09T03:32:03;19.50;;;4.85;;
27566;SDS011;15006;48.584;9.186;2023-10-09T03:34:32;17.13;;;5.20;;
27566;SDS011;15006;48.584;9.186;2023-10-09T03:36:58;17.42;;;5.20;;
27566;SDS011;15006;48.584;9.186;2023-10-09T03:39:30;17.40;;;5.68;;
27566;SDS011;15006;48.584;9.186;2023-10-09T03:44:31;13.57;;;4.80;;
27566;SDS011;15006;48.584;9.186;2023-10-09T03:46:59;16.73;;;5.25;;
27566;SDS011;15006;48.584;9.186;2023-10-09T03:49:27;10.63;;;5.10;;
27566;SDS011;15006;48.584;9.186;2023-10-09T03:51:55;14.43;;;5.13;;
27566;SDS011;15006;48.584;9.186;2023-10-09T03:54:21;14.00;;;5.25;;
27566;SDS011;15006;48.584;9.186;2023-10-09T03:56:50;15.35;;;5.38;;
27566;SDS011;15006;48.584;9.186;2023-10-09T03:59:17;13.60;;;5.45;;
27566;SDS011;15006;48.584;9.186;2023-10-09T04:01:47;18.92;;;5.85;;
27566;SDS011;15006;48.584;9.186;2023-10-09T04:04:16;16.38;;;5.30;;
27566;SDS011;15006;48.584;9.186;2023-10-09T04:06:42;10.95;;;4.57;;
27566;SDS011;15006;48.584;9.186;2023-10-09T04:09:11;23.27;;;6.40;;
27566;SDS011;15006;48.584;9.186;2023-10-09T04:11:50;27.35;;;6.07;;
27566;SDS011;15006;48.584;9.186;2023-10-09T04:14:36;16.35;;;5.45;;
27566;SDS011;15006;48.584;9.186;2023-10-09T04:17:13;14.48;;;5.47;;
27566;SDS011;15006;48.584;9.186;2023-10-09T04:19:48;15.13;;;5.93;;
27566;SDS011;15006;48.584;9.186;2023-10-09T04:22:38;17.75;;;4.75;;
27566;SDS011;15006;48.584;9.186;2023-10-09T04:25:16;12.60;;;4.35;;
27566;SDS011;15006;48.584;9.186;2023-10-09T04:27:53;13.93;;;4.75;;
27566;SDS011;15006;48.584;9.186;2023-10-09T04:30:40;13.55;;;5.13;;
27566;SDS011;15006;48.584;9.186;2023-10-09T04:33:08;12.10;;;5.30;;
27566;SDS011;15006;48.584;9.186;2023-10-09T04:35:53;11.70;;;4.75;;
27566;SDS011;15006;48.584;9.186;2023-10-09T04:38:47;12.05;;;4.50;;
27566;SDS011;15006;48.584;9.186;2023-10-09T04:41:30;18.95;;;5.20;;
27566;SDS011;15006;48.584;9.186;2023-10-09T04:44:17;17.23;;;5.25;;
27566;SDS011;15006;48.584;9.186;2023-10-09T04:46:48;20.17;;;5.15;;
27566;SDS011;15006;48.584;9.186;2023-10-09T04:49:37;12.73;;;5.88;;
27566;SDS011;15006;48.584;9.186;2023-10-09T04:52:15;21.83;;;5.32;;
27566;SDS011;15006;48.584;9.186;2023-10-09T04:55:06;13.18;;;5.22;;
27566;SDS011;15006;48.584;9.186;2023-10-09T05:00:12;15.95;;;4.88;;
27566;SDS011;15006;48.584;9.186;2023-10-09T05:03:00;14.07;;;4.78;;
27566;SDS011;15006;48.584;9.186;2023-10-09T05:05:37;22.65;;;5.45;;
27566;SDS011;15006;48.584;9.186;2023-10-09T05:08:17;10.90;;;5.15;;
27566;SDS011;15006;48.584;9.186;2023-10-09T05:10:46;24.42;;;6.40;;
27566;SDS011;15006;48.584;9.186;2023-10-09T05:13:35;16.00;;;4.82;;
27566;SDS011;15006;48.584;9.186;2023-10-09T05:18:41;18.27;;;4.60;;
27566;SDS011;15006;48.584;9.186;2023-10-09T05:21:13;19.70;;;5.15;;
27566;SDS011;15006;48.584;9.186;2023-10-09T05:24:02;16.35;;;4.97;;
27566;SDS011;15006;48.584;9.186;2023-10-09T05:29:24;15.02;;;5.68;;
27566;SDS011;15006;48.584;9.186;2023-10-09T05:31:57;19.65;;;4.65;;
27566;SDS011;15006;48.584;9.186;2023-10-09T05:34:42;25.23;;;5.30;;
27566;SDS011;15006;48.584;9.186;2023-10-09T05:40:01;13.43;;;5.13;;
27566;SDS011;15006;48.584;9.186;2023-10-09T05:42:43;21.73;;;5.35;;
27566;SDS011;15006;48.584;9.186;2023-10-09T05:45:12;24.08;;;4.88;;
27566;SDS011;15006;48.584;9.186;2023-10-09T05:48:00;14.90;;;4.82;;
27566;SDS011;15006;48.584;9.186;2023-10-09T05:50:29;17.45;;;4.90;;
27566;SDS011;15006;48.584;9.186;2023-10-09T05:53:01;18.35;;;4.90;;
27566;SDS011;15006;48.584;9.186;2023-10-09T05:55:28;14.77;;;4.85;;
27566;SDS011;15006;48.584;9.186;2023-10-09T05:58:31;18.27;;;5.43;;
27566;SDS011;15006;48.584;9.186;2023-10-09T06:01:15;19.63;;;5.05;;
27566;SDS011;15006;48.584;9.186;2023-10-09T06:03:59;18.48;;;4.43;;
27566;SDS011;15006;48.584;9.186;2023-10-09T06:06:43;17.95;;;3.90;;
27566;SDS011;15006;48.584;9.186;2023-10-09T06:09:14;13.52;;;4.15;;
27566;SDS011;15006;48.584;9.186;2023-10-09T06:11:41;17.10;;;5.05;;
27566;SDS011;15006;48.584;9.186;2023-10-09T06:14:18;16.08;;;4.70;;
27566;SDS011;15006;48.584;9.186;2023-10-09T06:16:55;15.40;;;4.63;;
27566;SDS011;15006;48.584;9.186;2023-10-09T06:19:23;19.00;;;6.22;;
27566;SDS011;15006;48.584;9.186;2023-10-09T06:21:54;15.57;;;4.43;;
27566;SDS011;15006;48.584;9.186;2023-10-09T06:24:43;15.25;;;4.90;;
27566;SDS011;15006;48.584;9.186;2023-10-09T06:27:20;16.90;;;4.47;;
27566;SDS011;15006;48.584;9.186;2023-10-09T06:29:57;13.65;;;4.95;;
27566;SDS011;15006;48.584;9.186;2023-10-09T06:32:43;13.73;;;4.05;;
27566;SDS011;15006;48.584;9.186;2023-10-09T06:35:33;13.70;;;4.90;;
27566;SDS011;15006;48.584;9.186;2023-10-09T06:38:01;10.68;;;4.43;;
27566;SDS011;15006;48.584;9.186;2023-10-09T06:40:34;13.80;;;4.57;;
27566;SDS011;15006;48.584;9.186;2023-10-09T06:43:17;16.33;;;5.05;;
27566;SDS011;15006;48.584;9.186;2023-10-09T06:48:44;19.15;;;5.32;;
27566;SDS011;15006;48.584;9.186;2023-10-09T06:51:13;8.85;;;3.47;;
27566;SDS011;15006;48.584;9.186;2023-10-09T06:53:55;13.93;;;4.80;;
27566;SDS011;15006;48.584;9.186;2023-10-09T06:56:28;17.35;;;5.35;;
27566;SDS011;15006;48.584;9.186;2023-10-09T07:01:29;19.10;;;5.68;;
27566;SDS011;15006;48.584;9.186;2023-10-09T07:04:09;9.75;;;5.28;;
27566;SDS011;15006;48.584;9.186;2023-10-09T07:07:05;13.63;;;4.93;;
27566;SDS011;15006;48.584;9.186;2023-10-09T07:09:38;16.50;;;4.22;;
27566;SDS011;15006;48.584;9.186;2023-10-09T07:12:23;12.32;;;4.45;;
27566;SDS011;15006;48.584;9.186;2023-10-09T07:14:52;20.70;;;4.95;;
27566;SDS011;15006;48.584;9.186;2023-10-09T07:17:21;16.17;;;5.10;;
27566;SDS011;15006;48.584;9.186;2023-10-09T07:19:47;19.55;;;5.50;;
27566;SDS011;15006;48.584;9.186;2023-10-09T07:22:15;18.13;;;5.47;;
27566;SDS011;15006;48.584;9.186;2023-10-09T07:24:48;19.30;;;4.90;;
27566;SDS011;15006;48.584;9.186;2023-10-09T07:27:23;11.05;;;4.82;;
27566;SDS011;15006;48.584;9.186;2023-10-09T07:30:20;17.33;;;5.57;;
27566;SDS011;15006;48.584;9.186;2023-10-09T07:32:56;14.88;;;5.80;;
27566;SDS011;15006;48.584;9.186;2023-10-09T07:35:36;20.35;;;5.32;;
27566;SDS011;15006;48.584;9.186;2023-10-09T07:38:11;14.18;;;5.05;;
27566;SDS011;15006;48.584;9.186;2023-10-09T07:40:45;19.50;;;5.13;;
27566;SDS011;15006;48.584;9.186;2023-10-09T07:43:41;15.98;;;4.90;;
27566;SDS011;15006;48.584;9.186;2023-10-09T07:46:08;13.75;;;4.78;;
27566;SDS011;15006;48.584;9.186;2023-10-09T07:48:55;13.07;;;4.53;;
27566;SDS011;15006;48.584;9.186;2023-10-09T07:51:23;17.73;;;5.85;;
27566;SDS011;15006;48.584;9.186;2023-10-09T07:53:56;18.85;;;8.35;;
27566;SDS011;15006;48.584;9.186;2023-10-09T07:56:41;22.85;;;9.25;;
27566;SDS011;15006;48.584;9.186;2023-10-09T07:59:11;33.85;;;10.45;;
27566;SDS011;15006;48.584;9.186;2023-10-09T08:01:50;28.90;;;10.38;;
27566;SDS011;15006;48.584;9.186;2023-10-09T08:04:28;24.85;;;9.60;;
27566;SDS011;15006;48.584;9.186;2023-10-09T08:07:05;25.27;;;8.75;;
27566;SDS011;15006;48.584;9.186;2023-10-09T08:09:47;19.17;;;7.05;;
27566;SDS011;15006;48.584;9.186;2023-10-09T08:12:14;24.05;;;6.57;;
27566;SDS011;15006;48.584;9.186;2023-10-09T08:15:01;14.80;;;4.50;;
27566;SDS011;15006;48.584;9.186;2023-10-09T08:17:49;13.50;;;4.55;;
27566;SDS011;15006;48.584;9.186;2023-10-09T08:20:25;11.85;;;4.10;;
27566;SDS011;15006;48.584;9.186;2023-10-09T08:22:53;10.45;;;3.47;;
27566;SDS011;15006;48.584;9.186;2023-10-09T08:25:23;13.57;;;3.47;;
27566;SDS011;15006;48.584;9.186;2023-10-09T08:27:55;13.75;;;3.97;;
27566;SDS011;15006;48.584;9.186;2023-10-09T08:30:24;14.07;;;4.18;;
27566;SDS011;15006;48.584;9.186;2023-10-09T08:32:51;13.23;;;4.07;;
27566;SDS011;15006;48.584;9.186;2023-10-09T08:35:27;13.30;;;3.75;;
27566;SDS011;15006;48.584;9.186;2023-10-09T08:37:58;13.18;;;3.47;;
27566;SDS011;15006;48.584;9.186;2023-10-09T08:40:33;14.68;;;3.67;;
27566;SDS011;15006;48.584;9.186;2023-10-09T08:43:15;11.82;;;3.53;;
27566;SDS011;15006;48.584;9.186;2023-10-09T08:45:47;14.27;;;4.20;;
27566;SDS011;15006;48.584;9.186;2023-10-09T08:48:26;17.27;;;3.50;;
27566;SDS011;15006;48.584;9.186;2023-10-09T08:50:54;7.40;;;3.10;;
27566;SDS011;15006;48.584;9.186;2023-10-09T08:53:24;19.63;;;3.65;;
27566;SDS011;15006;48.584;9.186;2023-10-09T08:55:53;15.80;;;3.92;;
27566;SDS011;15006;48.584;9.186;2023-10-09T08:58:19;8.57;;;3.47;;
27566;SDS011;15006;48.584;9.186;2023-10-09T09:00:45;14.75;;;4.15;;
27566;SDS011;15006;48.584;9.186;2023-10-09T09:03:18;11.82;;;3.33;;
27566;SDS011;15006;48.584;9.186;2023-10-09T09:06:01;12.90;;;3.35;;
27566;SDS011;15006;48.584;9.186;2023-10-09T09:08:32;19.58;;;4.30;;
27566;SDS011;15006;48.584;9.186;2023-10-09T09:11:08;18.85;;;4.20;;
27566;SDS011;15006;48.584;9.186;2023-10-09T09:13:40;11.90;;;3.58;;
27566;SDS011;15006;48.584;9.186;2023-10-09T09:16:17;11.32;;;3.58;;
27566;SDS011;15006;48.584;9.186;2023-10-09T09:18:58;11.05;;;3.50;;
27566;SDS011;15006;48.584;9.186;2023-10-09T09:21:30;18.08;;;3.38;;
27566;SDS011;15006;48.584;9.186;2023-10-09T09:24:07;7.30;;;3.05;;
27566;SDS011;15006;48.584;9.186;2023-10-09T09:26:43;14.02;;;3.70;;
27566;SDS011;15006;48.584;9.186;2023-10-09T09:29:46;15.93;;;3.63;;
27566;SDS011;15006;48.584;9.186;2023-10-09T09:32:29;11.10;;;3.03;;
27566;SDS011;15006;48.584;9.186;2023-10-09T09:35:04;13.18;;;3.40;;
27566;SDS011;15006;48.584;9.186;2023-10-09T09:37:43;23.17;;;4.18;;
27566;SDS011;15006;48.584;9.186;2023-10-09T09:40:20;9.95;;;2.95;;
27566;SDS011;15006;48.584;9.186;2023-10-09T09:42:56;17.92;;;3.78;;
27566;SDS011;15006;48.584;9.186;2023-10-09T09:45:34;9.32;;;2.97;;
27566;SDS011;15006;48.584;9.186;2023-10-09T09:48:04;16.35;;;4.10;;
27566;SDS011;15006;48.584;9.186;2023-10-09T09:50:32;10.65;;;3.58;;
27566;SDS011;15006;48.584;9.186;2023-10-09T09:52:59;18.90;;;4.45;;
27566;SDS011;15006;48.584;9.186;2023-10-09T09:55:27;16.65;;;4.32;;
27566;SDS011;15006;48.584;9.186;2023-10-09T09:57:59;11.45;;;3.30;;
27566;SDS011;15006;48.584;9.186;2023-10-09T10:00:33;16.77;;;4.20;;
27566;SDS011;15006;48.584;9.186;2023-10-09T10:03:10;26.85;;;4.47;;
27566;SDS011;15006;48.584;9.186;2023-10-09T10:05:47;12.37;;;3.43;;
27566;SDS011;15006;48.584;9.186;2023-10-09T10:08:17;17.88;;;3.90;;
27566;SDS011;15006;48.584;9.186;2023-10-09T10:10:49;13.65;;;3.58;;
27566;SDS011;15006;48.584;9.186;2023-10-09T10:16:10;17.15;;;3.67;;
27566;SDS011;15006;48.584;9.186;2023-10-09T10:18:56;15.70;;;3.60;;
27566;SDS011;15006;48.584;9.186;2023-10-09T10:21:25;9.23;;;3.80;;
27566;SDS011;15006;48.584;9.186;2023-10-09T10:24:04;13.88;;;4.45;;
27566;SDS011;15006;48.584;9.186;2023-10-09T10:26:36;15.95;;;3.75;;
27566;SDS011;15006;48.584;9.186;2023-10-09T10:31:56;12.80;;;4.50;;
27566;SDS011;15006;48.584;9.186;2023-10-09T10:34:26;18.23;;;4.80;;
27566;SDS011;15006;48.584;9.186;2023-10-09T10:37:36;16.10;;;4.25;;
27566;SDS011;15006;48.584;9.186;2023-10-09T10:40:09;12.82;;;3.78;;
27566;SDS011;15006;48.584;9.186;2023-10-09T10:42:50;21.70;;;4.40;;
27566;SDS011;15006;48.584;9.186;2023-10-09T10:45:37;14.77;;;3.90;;
27566;SDS011;15006;48.584;9.186;2023-10-09T10:48:09;21.48;;;4.00;;
27566;SDS011;15006;48.584;9.186;2023-10-09T10:50:57;14.38;;;3.85;;
27566;SDS011;15006;48.584;9.186;2023-10-09T10:53:23;24.77;;;4.70;;
27566;SDS011;15006;48.584;9.186;2023-10-09T10:55:59;17.13;;;4.93;;
27566;SDS011;15006;48.584;9.186;2023-10-09T10:58:41;13.07;;;3.85;;
27566;SDS011;15006;48.584;9.186;2023-10-09T11:01:31;21.83;;;4.38;;
27566;SDS011;15006;48.584;9.186;2023-10-09T11:04:16;16.65;;;4.78;;
27566;SDS011;15006;48.584;9.186;2023-10-09T11:06:55;13.50;;;3.92;;
27566;SDS011;15006;48.584;9.186;2023-10-09T11:15:08;17.55;;;4.85;;
27566;SDS011;15006;48.584;9.186;2023-10-09T11:18:01;17.05;;;4.03;;
27566;SDS011;15006;48.584;9.186;2023-10-09T11:20:37;19.65;;;5.38;;
27566;SDS011;15006;48.584;9.186;2023-10-09T11:23:04;16.30;;;4.45;;
27566;SDS011;15006;48.584;9.186;2023-10-09T11:25:42;16.58;;;4.47;;
27566;SDS011;15006;48.584;9.186;2023-10-09T11:31:10;18.88;;;4.80;;
27566;SDS011;15006;48.584;9.186;2023-10-09T11:33:47;23.38;;;5.35;;
27566;SDS011;15006;48.584;9.186;2023-10-09T11:36:20;19.73;;;4.68;;
27566;SDS011;15006;48.584;9.186;2023-10-09T11:39:12;15.90;;;4.55;;
27566;SDS011;15006;48.584;9.186;2023-10-09T11:42:09;21.92;;;4.80;;
27566;SDS011;15006;48.584;9.186;2023-10-09T11:44:40;19.70;;;5.03;;
27566;SDS011;15006;48.584;9.186;2023-10-09T11:47:10;24.95;;;5.60;;
27566;SDS011;15006;48.584;9.186;2023-10-09T11:52:36;20.73;;;4.85;;
27566;SDS011;15006;48.584;9.186;2023-10-09T11:55:11;22.02;;;5.35;;
27566;SDS011;15006;48.584;9.186;2023-10-09T11:57:40;18.05;;;4.57;;
27566;SDS011;15006;48.584;9.186;2023-10-09T12:00:06;17.20;;;5.10;;
27566;SDS011;15006;48.584;9.186;2023-10-09T12:02:51;21.70;;;4.90;;
27566;SDS011;15006;48.584;9.186;2023-10-09T12:05:18;21.42;;;4.72;;
27566;SDS011;15006;48.584;9.186;2023-10-09T12:07:47;16.60;;;4.47;;
27566;SDS011;15006;48.584;9.186;2023-10-09T12:10:23;19.20;;;4.85;;
27566;SDS011;15006;48.584;9.186;2023-10-09T12:12:52;21.92;;;5.07;;
27566;SDS011;15006;48.584;9.186;2023-10-09T12:15:19;16.02;;;4.50;;
27566;SDS011;15006;48.584;9.186;2023-10-09T12:17:46;22.15;;;4.10;;
27566;SDS011;15006;48.584;9.186;2023-10-09T12:20:13;17.98;;;5.43;;
27566;SDS011;15006;48.584;9.186;2023-10-09T12:22:56;15.40;;;4.25;;
27566;SDS011;15006;48.584;9.186;2023-10-09T12:25:26;21.70;;;4.43;;
27566;SDS011;15006;48.584;9.186;2023-10-09T12:27:57;20.40;;;4.32;;
27566;SDS011;15006;48.584;9.186;2023-10-09T12:30:27;19.80;;;4.47;;
27566;SDS011;15006;48.584;9.186;2023-10-09T12:33:05;15.32;;;4.13;;
27566;SDS011;15006;48.584;9.186;2023-10-09T12:35:36;21.73;;;5.20;;
27566;SDS011;15006;48.584;9.186;2023-10-09T12:38:04;17.77;;;4.90;;
27566;SDS011;15006;48.584;9.186;2023-10-09T12:40:36;20.73;;;4.85;;
27566;SDS011;15006;48.584;9.186;2023-10-09T12:43:04;19.30;;;4.75;;
27566;SDS011;15006;48.584;9.186;2023-10-09T12:45:33;17.38;;;4.45;;
27566;SDS011;15006;48.584;9.186;2023-10-09T12:47:59;26.27;;;4.40;;
27566;SDS011;15006;48.584;9.186;2023-10-09T12:50:31;17.30;;;4.20;;
27566;SDS011;15006;48.584;9.186;2023-10-09T12:53:00;15.38;;;4.38;;
27566;SDS011;15006;48.584;9.186;2023-10-09T12:55:35;18.98;;;4.63;;
27566;SDS011;15006;48.584;9.186;2023-10-09T12:58:08;18.50;;;4.88;;
27566;SDS011;15006;48.584;9.186;2023-10-09T13:00:40;24.27;;;5.25;;
27566;SDS011;15006;48.584;9.186;2023-10-09T13:03:10;15.18;;;4.75;;
27566;SDS011;15006;48.584;9.186;2023-10-09T13:05:43;20.58;;;4.82;;
27566;SDS011;15006;48.584;9.186;2023-10-09T13:08:24;21.58;;;4.13;;
27566;SDS011;15006;48.584;9.186;2023-10-09T13:11:04;19.35;;;4.40;;
27566;SDS011;15006;48.584;9.186;2023-10-09T13:13:42;17.27;;;4.18;;
27566;SDS011;15006;48.584;9.186;2023-10-09T13:16:14;23.25;;;4.97;;
27566;SDS011;15006;48.584;9.186;2023-10-09T13:18:57;25.02;;;4.28;;
27566;SDS011;15006;48.584;9.186;2023-10-09T13:21:31;14.25;;;4.10;;
27566;SDS011;15006;48.584;9.186;2023-10-09T13:23:57;23.40;;;5.22;;
27566;SDS011;15006;48.584;9.186;2023-10-09T13:26:26;17.17;;;4.77;;
27566;SDS011;15006;48.584;9.186;2023-10-09T13:28:58;18.27;;;5.05;;
27566;SDS011;15006;48.584;9.186;2023-10-09T13:31:25;20.02;;;4.85;;
27566;SDS011;15006;48.584;9.186;2023-10-09T13:33:52;16.95;;;4.72;;
27566;SDS011;15006;48.584;9.186;2023-10-09T13:36:20;18.83;;;4.53;;
27566;SDS011;15006;48.584;9.186;2023-10-09T13:39:01;17.23;;;4.95;;
27566;SDS011;15006;48.584;9.186;2023-10-09T13:41:52;32.35;;;6.28;;
27566;SDS011;15006;48.584;9.186;2023-10-09T13:44:25;20.75;;;5.20;;
27566;SDS011;15006;48.584;9.186;2023-10-09T13:46:55;23.40;;;5.43;;
27566;SDS011;15006;48.584;9.186;2023-10-09T13:49:30;17.13;;;4.65;;
27566;SDS011;15006;48.584;9.186;2023-10-09T13:51:58;22.33;;;5.20;;
27566;SDS011;15006;48.584;9.186;2023-10-09T13:54:26;22.17;;;4.82;;
27566;SDS011;15006;48.584;9.186;2023-10-09T13:56:59;15.80;;;4.28;;
27566;SDS011;15006;48.584;9.186;2023-10-09T13:59:29;23.40;;;4.90;;
27566;SDS011;15006;48.584;9.186;2023-10-09T14:01:56;18.73;;;5.10;;
27566;SDS011;15006;48.584;9.186;2023-10-09T14:04:24;17.35;;;4.38;;
27566;SDS011;15006;48.584;9.186;2023-10-09T14:06:54;21.33;;;5.32;;
27566;SDS011;15006;48.584;9.186;2023-10-09T14:09:26;23.17;;;5.80;;
27566;SDS011;15006;48.584;9.186;2023-10-09T14:12:20;20.80;;;5.05;;
27566;SDS011;15006;48.584;9.186;2023-10-09T14:14:47;20.92;;;4.72;;
27566;SDS011;15006;48.584;9.186;2023-10-09T14:17:14;13.27;;;4.72;;
27566;SDS011;15006;48.584;9.186;2023-10-09T14:19:47;15.15;;;4.30;;
27566;SDS011;15006;48.584;9.186;2023-10-09T14:22:20;17.98;;;5.07;;
27566;SDS011;15006;48.584;9.186;2023-10-09T14:24:50;14.38;;;4.13;;
27566;SDS011;15006;48.584;9.186;2023-10-09T14:27:25;18.65;;;4.43;;
27566;SDS011;15006;48.584;9.186;2023-10-09T14:29:54;13.52;;;4.30;;
27566;SDS011;15006;48.584;9.186;2023-10-09T14:32:24;14.05;;;5.20;;
27566;SDS011;15006;48.584;9.186;2023-10-09T14:34:56;22.02;;;4.97;;
27566;SDS011;15006;48.584;9.186;2023-10-09T14:37:38;23.98;;;6.13;;
27566;SDS011;15006;48.584;9.186;2023-10-09T14:40:07;11.75;;;4.43;;
27566;SDS011;15006;48.584;9.186;2023-10-09T14:42:38;18.30;;;4.35;;
27566;SDS011;15006;48.584;9.186;2023-10-09T14:45:10;19.60;;;5.72;;
27566;SDS011;15006;48.584;9.186;2023-10-09T14:47:41;14.73;;;4.93;;
27566;SDS011;15006;48.584;9.186;2023-10-09T14:50:07;15.27;;;5.22;;
27566;SDS011;15006;48.584;9.186;2023-10-09T14:52:35;19.92;;;5.40;;
27566;SDS011;15006;48.584;9.186;2023-10-09T14:55:04;17.92;;;5.43;;
27566;SDS011;15006;48.584;9.186;2023-10-09T14:57:31;14.93;;;5.03;;
27566;SDS011;15006;48.584;9.186;2023-10-09T15:00:01;17.70;;;5.30;;
27566;SDS011;15006;48.584;9.186;2023-10-09T15:02:33;19.40;;;5.43;;
27566;SDS011;15006;48.584;9.186;2023-10-09T15:04:59;16.23;;;5.28;;
27566;SDS011;15006;48.584;9.186;2023-10-09T15:07:25;20.92;;;5.38;;
27566;SDS011;15006;48.584;9.186;2023-10-09T15:09:53;20.25;;;4.72;;
27566;SDS011;15006;48.584;9.186;2023-10-09T15:12:19;21.38;;;5.63;;
27566;SDS011;15006;48.584;9.186;2023-10-09T15:14:48;16.05;;;4.88;;
27566;SDS011;15006;48.584;9.186;2023-10-09T15:17:16;19.65;;;5.78;;
27566;SDS011;15006;48.584;9.186;2023-10-09T15:19:42;24.65;;;6.20;;
27566;SDS011;15006;48.584;9.186;2023-10-09T15:22:10;24.30;;;5.03;;
27566;SDS011;15006;48.584;9.186;2023-10-09T15:24:37;22.58;;;5.28;;
27566;SDS011;15006;48.584;9.186;2023-10-09T15:27:03;22.17;;;5.47;;
27566;SDS011;15006;48.584;9.186;2023-10-09T15:29:31;22.30;;;5.53;;
27566;SDS011;15006;48.584;9.186;2023-10-09T15:31:59;21.23;;;5.68;;
27566;SDS011;15006;48.584;9.186;2023-10-09T15:34:33;17.77;;;5.07;;
27566;SDS011;15006;48.584;9.186;2023-10-09T15:37:03;17.08;;;5.05;;
27566;SDS011;15006;48.584;9.186;2023-10-09T15:39:29;20.58;;;5.72;;
27566;SDS011;15006;48.584;9.186;2023-10-09T15:41:57;19.60;;;4.95;;
27566;SDS011;15006;48.584;9.186;2023-10-09T15:44:23;18.30;;;5.03;;
27566;SDS011;15006;48.584;9.186;2023-10-09T15:46:50;22.05;;;5.18;;
27566;SDS011;15006;48.584;9.186;2023-10-09T15:49:27;17.73;;;4.90;;
27566;SDS011;15006;48.584;9.186;2023-10-09T15:51:55;18.90;;;5.10;;
27566;SDS011;15006;48.584;9.186;2023-10-09T15:54:23;23.55;;;5.72;;
27566;SDS011;15006;48.584;9.186;2023-10-09T15:56:49;17.95;;;4.65;;